Time;durP1;ratioP1;P1;durP2;ratioP2;P2;SDS_P1;SDS_P2;PMS_P1;PMS_P2;Temp;Humidity;BMP_temperature;BMP_pressure;BME280_temperature;BME280_humidity;BME280_pressure;Samples;Min_cycle;Max_cycle;Signal;HPM_P1;HPM_P2
2020/12/28 00:01:33;;;;;;;10.57;6.50;;;;;;;-0.42;66.32;92728.09;4770190;30;20063;-40
2020/12/28 00:04:00;;;;;;;11.43;7.00;;;;;;;-0.57;66.64;92732.28;4770112;30;20118;-41
2020/12/28 00:06:26;;;;;;;9.75;6.03;;;;;;;-0.66;67.33;92733.53;4770153;29;20109;-39
2020/12/28 00:08:53;;;;;;;9.18;6.10;;;;;;;-0.66;66.98;92721.03;4768459;30;20179;-41
2020/12/28 00:11:20;;;;;;;11.48;6.43;;;;;;;-0.60;66.78;92703.75;4771320;30;20138;-41
2020/12/28 00:13:46;;;;;;;12.63;7.05;;;;;;;-0.40;66.12;92715.25;4771646;30;20052;-41
2020/12/28 00:16:14;;;;;;;11.25;7.65;;;;;;;-0.37;65.89;92714.56;4770212;30;20139;-40
2020/12/28 00:18:42;;;;;;;12.23;7.32;;;;;;;-0.31;65.70;92702.56;4769563;30;20070;-40
2020/12/28 00:21:09;;;;;;;11.27;6.70;;;;;;;-0.32;65.78;92697.59;4770344;30;20112;-41
2020/12/28 00:23:35;;;;;;;12.45;6.53;;;;;;;-0.39;66.06;92698.22;4769937;30;20113;-41
2020/12/28 00:26:02;;;;;;;13.70;6.68;;;;;;;-0.26;65.27;92689.03;4770423;30;20138;-42
2020/12/28 00:28:29;;;;;;;10.63;7.25;;;;;;;-0.17;65.02;92680.09;4769974;30;20162;-41
2020/12/28 00:30:55;;;;;;;11.27;7.03;;;;;;;-0.09;65.07;92671.97;4769985;30;20138;-38
2020/12/28 00:33:22;;;;;;;10.15;6.95;;;;;;;-0.13;64.90;92670.31;4770159;30;20063;-38
2020/12/28 00:35:48;;;;;;;9.27;6.60;;;;;;;-0.04;64.88;92652.31;4769967;30;20131;-40
2020/12/28 00:38:15;;;;;;;10.80;6.28;;;;;;;0.11;64.75;92656.84;4769297;30;20063;-38
2020/12/28 00:40:41;;;;;;;11.07;6.55;;;;;;;0.32;64.44;92661.06;4770130;30;20486;-38
2020/12/28 00:43:08;;;;;;;10.18;6.22;;;;;;;0.50;63.45;92659.56;4769368;30;20063;-38
2020/12/28 00:45:35;;;;;;;13.85;7.57;;;;;;;0.59;62.80;92652.16;4770000;29;20672;-38
2020/12/28 00:48:02;;;;;;;10.65;6.93;;;;;;;0.66;62.96;92646.97;4767823;30;20059;-39
2020/12/28 00:50:29;;;;;;;12.00;6.70;;;;;;;0.64;63.02;92662.50;4770045;29;20481;-44
2020/12/28 00:52:56;;;;;;;14.75;7.30;;;;;;;0.58;62.51;92650.59;4768387;30;20062;-39
2020/12/28 00:55:25;;;;;;;9.82;5.72;;;;;;;0.59;62.71;92646.84;4768403;30;20047;-38
2020/12/28 00:57:52;;;;;;;10.13;6.38;;;;;;;0.69;62.49;92661.47;4768335;30;20066;-38
2020/12/28 01:00:19;;;;;;;10.27;6.75;;;;;;;0.78;62.39;92653.25;4770010;30;20067;-39
2020/12/28 01:03:04;;;;;;;9.50;6.57;;;;;;;0.74;62.37;92641.78;4768428;30;20063;-39
2020/12/28 01:05:50;;;;;;;12.48;6.63;;;;;;;1.00;62.04;92654.44;4769282;30;20059;-39
2020/12/28 01:08:17;;;;;;;12.35;7.10;;;;;;;0.86;62.31;92661.03;4767476;30;20324;-39
2020/12/28 01:10:44;;;;;;;11.85;6.70;;;;;;;0.62;63.36;92658.69;4767753;30;20112;-39
2020/12/28 01:13:14;;;;;;;10.20;6.60;;;;;;;0.81;63.29;92657.88;4768322;30;20066;-39
2020/12/28 01:15:45;;;;;;;10.90;6.75;;;;;;;0.82;62.84;92660.22;4768221;30;20052;-42
2020/12/28 01:18:17;;;;;;;11.93;5.80;;;;;;;0.87;63.00;92656.50;4767518;30;20059;-38
2020/12/28 01:20:51;;;;;;;14.60;7.57;;;;;;;1.05;62.20;92662.16;4768025;30;20105;-41
2020/12/28 01:23:18;;;;;;;10.82;6.90;;;;;;;1.15;61.85;92664.25;4769211;30;20449;-39
2020/12/28 01:25:58;;;;;;;11.27;6.85;;;;;;;1.23;61.08;92657.16;4768078;30;20052;-38
2020/12/28 01:28:27;;;;;;;10.18;6.85;;;;;;;1.17;61.46;92660.13;4767220;30;20064;-38
2020/12/28 01:30:53;;;;;;;11.00;6.53;;;;;;;1.23;60.97;92662.47;4767884;30;20572;-39
2020/12/28 01:33:38;;;;;;;9.75;6.53;;;;;;;1.21;61.06;92659.41;4769231;30;20526;-39
2020/12/28 01:36:05;;;;;;;12.43;7.30;;;;;;;1.17;60.91;92656.69;4767695;30;20064;-39
2020/12/28 01:38:34;;;;;;;11.00;6.47;;;;;;;1.16;61.12;92658.56;4766912;30;20054;-40
2020/12/28 01:41:01;;;;;;;10.02;6.72;;;;;;;1.29;60.92;92629.88;4767763;30;20055;-39
2020/12/28 01:43:36;;;;;;;11.43;7.03;;;;;;;1.50;61.22;92636.72;4767525;30;20052;-40
2020/12/28 01:46:03;;;;;;;11.07;7.68;;;;;;;1.62;60.54;92649.84;4768944;29;20062;-39
2020/12/28 01:48:38;;;;;;;11.52;6.80;;;;;;;1.51;60.73;92655.00;4767161;30;20506;-40
2020/12/28 01:51:05;;;;;;;9.95;6.65;;;;;;;1.25;61.09;92647.69;4768996;30;20060;-39
2020/12/28 01:53:34;;;;;;;10.82;6.85;;;;;;;1.08;61.71;92656.13;4767640;30;20063;-39
2020/12/28 01:56:07;;;;;;;10.73;6.30;;;;;;;0.66;63.09;92639.00;4770014;30;20062;-39
2020/12/28 01:58:38;;;;;;;10.20;6.30;;;;;;;0.64;63.44;92632.47;4770854;30;20061;-39
2020/12/28 02:01:08;;;;;;;12.85;7.18;;;;;;;0.80;63.32;92637.72;4771357;30;20047;-39
2020/12/28 02:03:36;;;;;;;11.48;6.80;;;;;;;0.99;62.53;92636.94;4771439;30;20572;-38
2020/12/28 02:06:16;;;;;;;12.40;6.93;;;;;;;0.88;63.10;92626.88;4771645;30;20426;-39
2020/12/28 02:08:44;;;;;;;13.27;7.05;;;;;;;0.66;63.66;92619.59;4771801;30;20097;-39
2020/12/28 02:11:11;;;;;;;10.70;6.60;;;;;;;0.74;63.22;92617.84;4771079;30;20592;-39
2020/12/28 02:13:38;;;;;;;10.93;6.38;;;;;;;0.73;63.53;92605.66;4771600;30;20051;-39
2020/12/28 02:16:30;;;;;;;10.25;6.88;;;;;;;0.71;63.57;92613.97;4771083;30;20059;-40
2020/12/28 02:19:04;;;;;;;10.73;6.43;;;;;;;0.75;63.50;92614.06;4770413;30;20051;-39
2020/12/28 02:21:37;;;;;;;10.68;6.85;;;;;;;0.86;63.28;92615.03;4771005;30;20083;-40
2020/12/28 02:24:05;;;;;;;11.65;7.50;;;;;;;1.00;62.57;92611.88;4771333;30;20051;-40
2020/12/28 02:26:35;;;;;;;11.70;6.80;;;;;;;1.22;62.04;92627.09;4771878;30;20056;-40
2020/12/28 02:29:02;;;;;;;11.27;6.90;;;;;;;1.22;62.56;92611.13;4770216;30;20140;-41
2020/12/28 02:31:30;;;;;;;12.88;7.38;;;;;;;1.17;62.29;92622.84;4771751;30;20055;-41
2020/12/28 02:34:19;;;;;;;10.65;6.82;;;;;;;1.05;62.37;92606.25;4755951;30;20051;-40
2020/12/28 02:36:58;;;;;;;14.23;7.22;;;;;;;0.85;63.67;92595.63;4770616;30;20055;-41
2020/12/28 02:39:33;;;;;;;12.20;7.45;;;;;;;0.57;64.28;92590.53;4769813;30;20060;-41
2020/12/28 02:42:00;;;;;;;11.93;7.30;;;;;;;0.33;65.15;92580.19;4770405;30;20067;-42
2020/12/28 02:44:45;;;;;;;10.73;6.38;;;;;;;0.29;65.97;92569.47;4770571;30;20058;-42
2020/12/28 02:47:29;;;;;;;11.65;7.57;;;;;;;0.57;65.03;92558.63;4770871;30;20426;-41
2020/12/28 02:50:14;;;;;;;13.98;7.45;;;;;;;0.73;64.63;92555.13;4771445;30;20428;-39
2020/12/28 02:52:59;;;;;;;13.02;7.55;;;;;;;0.77;64.77;92545.28;4771580;30;20063;-41
2020/12/28 02:55:44;;;;;;;11.48;7.00;;;;;;;0.93;64.04;92553.94;4771221;30;20558;-40
2020/12/28 02:58:29;;;;;;;10.57;6.88;;;;;;;0.99;64.19;92557.84;4770470;30;20086;-40
2020/12/28 03:01:15;;;;;;;10.82;6.82;;;;;;;1.12;63.70;92561.88;4771194;30;20056;-40
2020/12/28 03:04:07;;;;;;;11.95;6.93;;;;;;;1.10;63.52;92561.47;4777210;29;20055;-42
2020/12/28 03:06:52;;;;;;;11.32;7.18;;;;;;;0.96;64.29;92547.91;4771073;30;20059;-42
2020/12/28 03:09:37;;;;;;;10.50;6.75;;;;;;;0.99;64.50;92546.44;4770604;30;20094;-41
2020/12/28 03:12:25;;;;;;;11.23;6.95;;;;;;;1.02;64.88;92551.06;4771298;30;20130;-39
2020/12/28 03:15:30;;;;;;;10.93;6.70;;;;;;;0.88;64.46;92549.69;4786769;30;20076;-39
2020/12/28 03:18:15;;;;;;;10.57;6.65;;;;;;;0.24;66.87;92543.19;4786130;29;20078;-39
2020/12/28 03:21:11;;;;;;;11.63;7.22;;;;;;;0.43;65.82;92545.84;4769064;30;20072;-38
2020/12/28 03:24:03;;;;;;;9.23;6.65;;;;;;;0.66;65.36;92532.56;4776520;30;20052;-40
2020/12/28 03:26:49;;;;;;;12.75;6.95;;;;;;;0.56;65.45;92522.50;4771091;30;20051;-39
2020/12/28 03:29:34;;;;;;;11.30;7.13;;;;;;;0.77;65.25;92527.44;4789941;24;20051;-39
2020/12/28 03:32:19;;;;;;;10.27;6.57;;;;;;;0.94;64.53;92512.88;4772868;30;20135;-38
2020/12/28 03:35:04;;;;;;;10.57;7.15;;;;;;;1.06;64.20;92498.63;4773140;30;20050;-39
2020/12/28 03:37:49;;;;;;;11.32;7.07;;;;;;;1.21;64.11;92500.41;4771358;30;20079;-38
2020/12/28 03:40:34;;;;;;;11.60;7.05;;;;;;;1.03;64.77;92494.78;4776324;30;20056;-40
2020/12/28 03:43:19;;;;;;;13.98;7.47;;;;;;;1.15;64.53;92496.50;4772011;30;20134;-38
2020/12/28 03:46:04;;;;;;;12.68;7.22;;;;;;;1.24;64.39;92498.94;4770993;30;20051;-43
2020/12/28 03:48:49;;;;;;;11.82;6.35;;;;;;;1.40;63.76;92500.31;4770278;30;20051;-41
2020/12/28 03:51:34;;;;;;;12.32;7.70;;;;;;;1.38;64.52;92504.47;4770453;30;20491;-38
2020/12/28 03:54:19;;;;;;;11.68;7.90;;;;;;;1.47;64.82;92505.00;4770889;30;20048;-41
2020/12/28 03:57:04;;;;;;;12.95;7.45;;;;;;;1.28;64.96;92499.75;4770055;30;20051;-40
2020/12/28 03:59:49;;;;;;;10.50;7.53;;;;;;;1.26;65.17;92492.09;4769500;30;20143;-39
2020/12/28 04:02:34;;;;;;;14.07;8.80;;;;;;;1.39;64.49;92492.69;4770678;30;20518;-38
2020/12/28 04:05:29;;;;;;;11.82;7.13;;;;;;;1.38;64.54;92499.13;4784138;30;20402;-39
2020/12/28 04:08:14;;;;;;;10.45;6.78;;;;;;;1.35;64.39;92503.28;4769448;30;20545;-41
2020/12/28 04:10:59;;;;;;;10.20;6.65;;;;;;;1.22;64.16;92512.59;4770128;30;20060;-40
2020/12/28 04:13:58;;;;;;;13.43;8.38;;;;;;;0.81;65.35;92491.00;4778498;30;20068;-40
2020/12/28 04:16:24;;;;;;;12.15;6.63;;;;;;;0.81;66.37;92493.66;4772037;30;20047;-39
2020/12/28 04:18:51;;;;;;;10.32;7.00;;;;;;;0.92;66.28;92488.53;4769428;30;20059;-39
2020/12/28 04:21:17;;;;;;;12.43;6.65;;;;;;;0.59;66.58;92478.47;4770506;30;20059;-40
2020/12/28 04:23:43;;;;;;;12.95;6.80;;;;;;;0.85;66.34;92494.50;4771012;30;20475;-42
2020/12/28 04:26:10;;;;;;;11.25;6.82;;;;;;;0.98;65.62;92497.00;4770015;30;20484;-39
2020/12/28 04:28:37;;;;;;;10.10;6.35;;;;;;;1.00;66.10;92490.19;4768010;30;20543;-38
2020/12/28 04:31:07;;;;;;;11.00;7.13;;;;;;;1.15;65.54;92496.50;4770245;30;20449;-39
2020/12/28 04:33:33;;;;;;;13.07;7.45;;;;;;;0.98;65.31;92495.09;4770349;30;20172;-40
2020/12/28 04:36:00;;;;;;;13.73;6.90;;;;;;;1.09;65.57;92489.94;4770169;30;20068;-39
2020/12/28 04:38:26;;;;;;;9.75;6.60;;;;;;;0.96;64.98;92462.75;4768516;30;20461;-38
2020/12/28 04:40:53;;;;;;;10.65;7.03;;;;;;;1.20;64.90;92479.44;4769677;29;20066;-39
2020/12/28 04:43:19;;;;;;;11.60;6.72;;;;;;;1.33;64.38;92464.81;4769763;30;20062;-41
2020/12/28 04:45:46;;;;;;;11.43;6.70;;;;;;;1.44;64.30;92481.72;4769615;30;20059;-41
2020/12/28 04:48:12;;;;;;;9.63;6.63;;;;;;;1.45;63.94;92485.16;4769279;30;20071;-40
2020/12/28 04:50:41;;;;;;;10.18;7.00;;;;;;;1.20;64.23;92458.91;4769703;30;20086;-39
2020/12/28 04:53:07;;;;;;;9.32;6.95;;;;;;;1.47;63.91;92488.25;4769759;30;20066;-39
2020/12/28 04:55:34;;;;;;;9.50;6.60;;;;;;;1.36;64.42;92491.50;4769522;30;20052;-38
2020/12/28 04:58:01;;;;;;;10.50;6.60;;;;;;;1.34;64.57;92485.78;4767681;30;20062;-38
2020/12/28 05:00:27;;;;;;;10.50;6.55;;;;;;;1.32;64.63;92485.34;4769690;30;20082;-37
2020/12/28 05:02:54;;;;;;;10.55;6.15;;;;;;;1.25;64.61;92474.59;4753506;30;20055;-41
2020/12/28 05:05:20;;;;;;;13.73;7.00;;;;;;;1.42;64.78;92475.22;4768722;30;20056;-38
2020/12/28 05:07:50;;;;;;;11.30;6.63;;;;;;;1.47;64.68;92477.59;4768536;30;20071;-40
2020/12/28 05:10:23;;;;;;;10.25;6.68;;;;;;;1.57;64.30;92461.75;4768862;30;20060;-41
2020/12/28 05:12:50;;;;;;;;;;;;;;;1.72;63.27;92443.25;4769231;30;20146;-39
2020/12/28 05:15:16;;;;;;;11.13;6.50;;;;;;;1.47;63.71;92427.72;4768918;29;20013;-40
2020/12/28 05:17:51;;;;;;;9.25;6.10;;;;;;;1.48;63.56;92444.47;4768109;30;20600;-40
2020/12/28 05:20:22;;;;;;;8.52;5.68;;;;;;;1.61;62.64;92445.78;4768928;30;20070;-38
2020/12/28 05:22:54;;;;;;;12.25;6.40;;;;;;;1.59;62.10;92451.50;4768950;30;20085;-42
2020/12/28 05:25:22;;;;;;;9.52;6.05;;;;;;;1.35;62.89;92438.59;4767786;30;20050;-39
2020/12/28 05:27:49;;;;;;;9.80;5.70;;;;;;;1.35;63.30;92430.59;4768312;30;20063;-39
2020/12/28 05:30:20;;;;;;;8.55;5.70;;;;;;;1.56;62.29;92446.09;4768194;29;20062;-39
2020/12/28 05:32:47;;;;;;;9.98;5.93;;;;;;;1.51;61.92;92441.84;4768712;30;20055;-39
2020/12/28 05:35:15;;;;;;;9.98;5.80;;;;;;;1.28;62.45;92431.28;4768815;30;20109;-39
2020/12/28 05:37:42;;;;;;;10.80;5.55;;;;;;;1.41;63.22;92431.84;4767935;30;20060;-39
2020/12/28 05:40:10;;;;;;;7.22;4.82;;;;;;;1.55;62.76;92434.69;4768714;30;20055;-39
2020/12/28 05:42:38;;;;;;;10.27;5.45;;;;;;;1.67;62.30;92427.59;4768537;30;20502;-39
2020/12/28 05:45:08;;;;;;;10.00;6.43;;;;;;;1.85;61.65;92442.69;4768498;30;20058;-39
2020/12/28 05:47:41;;;;;;;9.63;5.53;;;;;;;1.72;61.33;92437.94;4768165;29;20059;-40
2020/12/28 05:50:09;;;;;;;9.43;5.63;;;;;;;1.52;61.66;92435.41;4768675;30;20052;-39
2020/12/28 05:52:46;;;;;;;8.05;5.32;;;;;;;1.19;62.79;92465.38;4768737;30;20060;-40
2020/12/28 05:55:16;;;;;;;9.02;5.25;;;;;;;1.03;63.31;92507.34;4769605;30;20510;-40
2020/12/28 05:57:46;;;;;;;8.55;5.43;;;;;;;0.50;65.23;92513.28;4769184;29;20060;-39
2020/12/28 06:00:12;;;;;;;9.02;5.50;;;;;;;0.43;65.79;92491.88;4770820;30;20066;-38
2020/12/28 06:02:40;;;;;;;9.13;6.72;;;;;;;0.55;64.84;92494.34;4770374;29;20052;-38
2020/12/28 06:05:08;;;;;;;9.63;5.53;;;;;;;0.47;64.56;92521.97;4768585;30;20060;-38
2020/12/28 06:07:35;;;;;;;8.85;5.53;;;;;;;0.29;66.19;92526.16;4767675;30;20146;-39
2020/12/28 06:10:01;;;;;;;9.95;5.70;;;;;;;0.34;66.38;92539.94;4768442;30;20101;-39
2020/12/28 06:12:28;;;;;;;12.80;6.35;;;;;;;-0.07;68.81;92520.91;4768366;30;20060;-38
2020/12/28 06:14:54;;;;;;;11.70;6.40;;;;;;;0.34;67.77;92523.22;4768775;30;20130;-39
2020/12/28 06:17:34;;;;;;;9.70;6.07;;;;;;;0.81;65.75;92535.47;4767897;30;20059;-39
2020/12/28 06:20:05;;;;;;;10.10;6.25;;;;;;;0.59;66.95;92532.44;4768578;30;20411;-39
2020/12/28 06:22:33;;;;;;;10.80;6.70;;;;;;;0.20;68.04;92532.47;4769179;30;20529;-38
2020/12/28 06:25:00;;;;;;;12.57;6.63;;;;;;;0.41;67.80;92512.72;4768605;30;20081;-39
2020/12/28 06:27:31;;;;;;;12.48;6.85;;;;;;;0.65;66.26;92528.38;4767325;30;20060;-39
2020/12/28 06:30:13;;;;;;;12.40;6.82;;;;;;;0.33;68.24;92524.38;4768295;30;20071;-39
2020/12/28 06:32:40;;;;;;;10.93;6.72;;;;;;;0.33;68.47;92517.16;4768558;30;20062;-39
2020/12/28 06:35:09;;;;;;;13.50;8.07;;;;;;;0.73;67.21;92493.91;4768076;29;20080;-39
2020/12/28 06:37:43;;;;;;;13.68;7.47;;;;;;;1.00;66.46;92474.19;4767517;30;20059;-40
2020/12/28 06:40:12;;;;;;;10.70;7.25;;;;;;;0.59;67.91;92463.28;4768371;30;20066;-39
2020/12/28 06:42:40;;;;;;;10.30;7.18;;;;;;;0.83;67.15;92475.47;4770961;30;20062;-39
2020/12/28 06:45:16;;;;;;;11.90;6.80;;;;;;;1.06;66.45;92464.78;4770985;30;20130;-38
2020/12/28 06:47:43;;;;;;;12.20;7.25;;;;;;;1.13;65.89;92467.56;4770434;29;20062;-39
2020/12/28 06:50:11;;;;;;;13.02;7.63;;;;;;;1.34;65.00;92461.03;4771236;30;20068;-38
2020/12/28 06:52:37;;;;;;;10.45;6.88;;;;;;;1.54;64.39;92446.47;4771044;30;20573;-39
2020/12/28 06:55:11;;;;;;;11.48;7.05;;;;;;;1.44;65.09;92446.34;4770955;30;20052;-41
2020/12/28 06:57:38;;;;;;;14.40;7.15;;;;;;;1.53;64.43;92428.97;4770425;30;20060;-39
2020/12/28 07:00:06;;;;;;;12.68;7.15;;;;;;;1.47;64.47;92421.63;4771189;30;20446;-40
2020/12/28 07:02:33;;;;;;;11.60;6.53;;;;;;;1.40;64.59;92379.69;4773148;30;20056;-38
2020/12/28 07:05:01;;;;;;;10.70;6.75;;;;;;;1.45;64.82;92416.66;4773086;30;20513;-39
2020/12/28 07:07:27;;;;;;;18.05;7.10;;;;;;;1.29;64.77;92403.50;4770110;30;20056;-40
2020/12/28 07:09:54;;;;;;;11.40;6.97;;;;;;;1.33;64.65;92422.19;4770771;30;20063;-39
2020/12/28 07:12:21;;;;;;;10.95;6.55;;;;;;;1.50;64.29;92423.59;4770692;30;20528;-39
2020/12/28 07:14:47;;;;;;;17.15;6.90;;;;;;;1.56;63.57;92419.47;4770538;30;20560;-38
2020/12/28 07:17:13;;;;;;;12.82;7.55;;;;;;;1.69;63.11;92412.78;4770449;30;20075;-38
2020/12/28 07:19:40;;;;;;;11.07;7.05;;;;;;;1.83;63.04;92412.19;4769891;30;20059;-39
2020/12/28 07:22:06;;;;;;;12.25;6.90;;;;;;;1.93;63.17;92426.78;4770889;30;20437;-38
2020/12/28 07:24:32;;;;;;;10.68;6.55;;;;;;;1.97;62.41;92431.00;4770529;30;20335;-38
2020/12/28 07:26:59;;;;;;;11.60;6.88;;;;;;;1.77;62.81;92430.41;4770437;30;20059;-39
2020/12/28 07:29:26;;;;;;;11.40;6.80;;;;;;;1.86;62.57;92424.78;4769816;30;20454;-39
2020/12/28 07:32:03;;;;;;;11.63;6.93;;;;;;;2.00;62.18;92438.28;4770773;30;20066;-39
2020/12/28 07:34:30;;;;;;;11.18;6.70;;;;;;;1.82;62.32;92427.41;4770527;29;20175;-39
2020/12/28 07:36:57;;;;;;;12.32;6.45;;;;;;;1.91;62.44;92418.38;4770445;30;20059;-39
2020/12/28 07:39:23;;;;;;;12.00;6.80;;;;;;;1.91;62.91;92408.47;4769828;29;20140;-38
2020/12/28 07:41:50;;;;;;;11.10;6.05;;;;;;;2.00;62.39;92395.63;4770507;29;20059;-39
2020/12/28 07:44:16;;;;;;;9.77;6.57;;;;;;;1.97;62.48;92399.00;4770552;30;20066;-39
2020/12/28 07:46:48;;;;;;;12.07;7.35;;;;;;;1.82;63.36;92402.66;4770406;30;20076;-39
2020/12/28 07:49:21;;;;;;;12.85;6.72;;;;;;;1.81;63.59;92393.13;4769587;30;20147;-38
2020/12/28 07:52:11;;;;;;;11.10;6.20;;;;;;;1.88;63.04;92377.19;4770080;30;20064;-39
2020/12/28 07:54:59;;;;;;;10.27;6.68;;;;;;;2.00;62.44;92378.88;4769910;29;20055;-39
2020/12/28 07:57:38;;;;;;;9.60;6.60;;;;;;;1.99;61.42;92362.09;4769567;30;20135;-38
2020/12/28 08:00:07;;;;;;;10.38;6.38;;;;;;;2.19;60.50;92386.69;4770352;30;20098;-40
2020/12/28 08:02:52;;;;;;;11.63;6.40;;;;;;;2.44;60.39;92370.94;4770237;30;20407;-40
2020/12/28 08:05:20;;;;;;;8.57;5.50;;;;;;;2.16;61.39;92349.31;4770332;30;20134;-40
2020/12/28 08:07:46;;;;;;;14.13;6.60;;;;;;;2.29;60.62;92364.69;4769090;30;20059;-38
2020/12/28 08:10:13;;;;;;;9.70;5.55;;;;;;;2.39;59.94;92346.47;4769912;30;20071;-39
2020/12/28 08:12:50;;;;;;;12.65;6.28;;;;;;;2.50;59.86;92358.78;4769838;30;20514;-39
2020/12/28 08:15:30;;;;;;;11.10;5.85;;;;;;;2.50;59.15;92355.31;4769678;29;20058;-39
2020/12/28 08:18:10;;;;;;;9.98;5.68;;;;;;;2.52;59.15;92350.41;4768911;30;20473;-39
2020/12/28 08:20:38;;;;;;;12.27;6.47;;;;;;;2.44;59.82;92316.78;4769687;30;20062;-40
2020/12/28 08:23:05;;;;;;;11.93;6.53;;;;;;;2.33;59.85;92316.69;4770926;30;20055;-41
2020/12/28 08:25:33;;;;;;;13.13;6.35;;;;;;;2.32;59.70;92309.84;4772321;30;20047;-39
2020/12/28 08:28:01;;;;;;;13.27;6.13;;;;;;;2.26;60.50;92314.72;4769455;29;20131;-39
2020/12/28 08:30:29;;;;;;;10.02;6.22;;;;;;;2.30;59.41;92320.09;4769602;30;20063;-40
2020/12/28 08:32:59;;;;;;;8.52;5.78;;;;;;;2.08;59.30;92338.59;4769580;29;20155;-40
2020/12/28 08:35:26;;;;;;;10.35;5.85;;;;;;;2.14;58.74;92330.25;4769407;29;20540;-39
2020/12/28 08:37:53;;;;;;;9.35;5.90;;;;;;;2.26;58.29;92321.97;4768649;30;20408;-39
2020/12/28 08:40:21;;;;;;;9.48;5.57;;;;;;;2.28;58.76;92306.38;4769178;30;20116;-40
2020/12/28 08:42:56;;;;;;;12.35;6.00;;;;;;;2.22;58.67;92326.53;4769574;30;20059;-39
2020/12/28 08:45:26;;;;;;;9.20;5.55;;;;;;;2.17;58.72;92340.19;4769016;30;20048;-42
2020/12/28 08:47:58;;;;;;;10.45;5.85;;;;;;;2.17;58.09;92346.28;4768673;30;20473;-42
2020/12/28 08:50:36;;;;;;;9.52;5.68;;;;;;;1.82;57.74;92357.34;4769360;30;20066;-39
2020/12/28 08:53:03;;;;;;;9.63;4.75;;;;;;;1.81;55.54;92311.25;4769377;30;20083;-41
2020/12/28 08:55:30;;;;;;;6.63;4.07;;;;;;;2.03;54.03;92301.56;4768779;30;20056;-40
2020/12/28 08:57:59;;;;;;;8.98;4.68;;;;;;;2.25;53.85;92299.13;4768159;30;20059;-40
2020/12/28 09:00:27;;;;;;;7.72;4.35;;;;;;;2.31;54.30;92322.41;4768833;30;20059;-41
2020/12/28 09:02:58;;;;;;;9.07;5.22;;;;;;;2.37;54.85;92335.41;4769011;30;20456;-39
2020/12/28 09:05:29;;;;;;;10.10;4.72;;;;;;;2.18;54.28;92342.50;4768753;29;20420;-42
2020/12/28 09:07:55;;;;;;;9.07;5.10;;;;;;;2.07;55.53;92329.03;4767965;29;20502;-41
2020/12/28 09:10:21;;;;;;;8.52;5.07;;;;;;;2.24;56.36;92325.03;4768987;30;20060;-42
2020/12/28 09:12:49;;;;;;;8.38;5.35;;;;;;;2.38;56.05;92327.03;4768927;30;20063;-39
2020/12/28 09:15:15;;;;;;;11.43;6.35;;;;;;;2.57;54.46;92320.72;4769067;30;20050;-39
2020/12/28 09:17:42;;;;;;;9.73;5.45;;;;;;;2.65;54.03;92324.94;4768380;30;20064;-38
2020/12/28 09:20:08;;;;;;;10.93;6.13;;;;;;;2.35;55.04;92335.78;4769302;30;20116;-39
2020/12/28 09:22:35;;;;;;;11.95;5.93;;;;;;;2.28;55.38;92338.38;4768762;30;20060;-39
2020/12/28 09:25:02;;;;;;;9.80;5.72;;;;;;;2.30;55.67;92328.88;4769337;30;20058;-39
2020/12/28 09:27:28;;;;;;;8.68;5.70;;;;;;;2.36;56.17;92318.63;4768926;30;20061;-40
2020/12/28 09:29:55;;;;;;;9.65;5.13;;;;;;;2.47;54.86;92327.50;4780135;24;20222;-40
2020/12/28 09:32:21;;;;;;;9.57;5.20;;;;;;;2.62;54.26;92328.38;4767396;30;20094;-40
2020/12/28 09:34:48;;;;;;;12.52;5.85;;;;;;;2.53;54.85;92320.66;4770761;30;20056;-40
2020/12/28 09:37:15;;;;;;;13.27;5.70;;;;;;;2.47;54.96;92340.84;4772818;30;20119;-39
2020/12/28 09:39:42;;;;;;;8.40;5.20;;;;;;;2.48;54.83;92342.38;4773041;30;20052;-40
2020/12/28 09:42:08;;;;;;;8.20;5.50;;;;;;;2.35;55.10;92325.09;4771675;30;20490;-39
2020/12/28 09:44:35;;;;;;;10.05;5.53;;;;;;;2.64;54.91;92341.34;4768734;30;20451;-40
2020/12/28 09:47:01;;;;;;;12.63;5.72;;;;;;;2.80;54.69;92323.94;4774481;30;20063;-40
2020/12/28 09:49:28;;;;;;;13.35;6.10;;;;;;;2.78;54.94;92331.53;4771415;30;20060;-40
2020/12/28 09:51:54;;;;;;;8.00;5.68;;;;;;;2.85;54.60;92333.47;4768300;30;20059;-40
2020/12/28 09:54:22;;;;;;;9.32;5.88;;;;;;;2.86;54.04;92329.69;4768196;30;20129;-40
2020/12/28 09:57:06;;;;;;;14.87;5.93;;;;;;;2.84;55.02;92325.84;4768165;30;20060;-41
2020/12/28 09:59:35;;;;;;;8.50;5.55;;;;;;;2.90;54.64;92324.38;4767804;30;20060;-39
2020/12/28 10:02:03;;;;;;;13.43;6.60;;;;;;;3.03;54.44;92312.25;4769136;30;20121;-39
2020/12/28 10:04:30;;;;;;;11.85;6.30;;;;;;;2.90;55.77;92314.47;4768672;30;20052;-40
2020/12/28 10:06:57;;;;;;;11.50;5.78;;;;;;;2.95;55.15;92298.06;4768523;30;20056;-39
2020/12/28 10:09:23;;;;;;;12.27;5.93;;;;;;;3.13;54.16;92302.75;4767851;30;20064;-39
2020/12/28 10:11:50;;;;;;;12.15;6.45;;;;;;;2.90;55.28;92293.09;4768289;29;20098;-39
2020/12/28 10:14:17;;;;;;;14.75;6.18;;;;;;;2.86;55.81;92294.19;4768295;30;20056;-39
2020/12/28 10:16:43;;;;;;;13.05;6.07;;;;;;;2.94;55.63;92291.22;4770085;30;20134;-40
2020/12/28 10:19:09;;;;;;;11.52;6.40;;;;;;;2.99;55.94;92282.06;4771382;30;20075;-39
2020/12/28 10:21:36;;;;;;;10.13;6.28;;;;;;;3.02;56.13;92281.31;4771787;30;20151;-40
2020/12/28 10:24:03;;;;;;;9.63;6.35;;;;;;;3.00;55.66;92281.72;4771818;30;20051;-39
2020/12/28 10:26:30;;;;;;;13.20;6.75;;;;;;;2.95;55.37;92281.28;4771684;30;20060;-39
2020/12/28 10:28:57;;;;;;;10.02;5.93;;;;;;;3.02;54.62;92270.63;4747488;30;680570;-39
2020/12/28 10:31:25;;;;;;;8.38;6.03;;;;;;;3.11;54.84;92263.06;4772851;30;20067;-39
2020/12/28 10:33:54;;;;;;;11.70;5.93;;;;;;;3.06;55.60;92265.34;4773211;30;20162;-40
2020/12/28 10:36:30;;;;;;;8.40;5.80;;;;;;;3.01;55.54;92247.75;4771119;30;20468;-39
2020/12/28 10:39:00;;;;;;;14.02;7.32;;;;;;;3.14;54.19;92261.56;4778071;30;20136;-38
2020/12/28 10:41:28;;;;;;;20.00;8.98;;;;;;;2.67;56.51;92252.53;4782300;30;20071;-42
2020/12/28 10:43:56;;;;;;;14.05;7.50;;;;;;;2.73;57.51;92256.38;4774858;30;20128;-39
2020/12/28 10:46:22;;;;;;;17.25;7.78;;;;;;;2.85;57.01;92261.41;4776147;30;20060;-39
2020/12/28 10:48:49;;;;;;;11.15;7.18;;;;;;;2.98;57.27;92248.50;4772624;30;20090;-40
2020/12/28 10:51:16;;;;;;;12.52;6.88;;;;;;;2.86;57.61;92257.63;4772506;30;20468;-40
2020/12/28 10:53:43;;;;;;;12.10;6.75;;;;;;;3.01;57.30;92253.84;4773954;30;20068;-41
2020/12/28 10:56:10;;;;;;;11.88;7.32;;;;;;;2.92;57.36;92245.41;4775662;30;20051;-40
2020/12/28 10:58:37;;;;;;;13.90;7.45;;;;;;;2.33;58.83;92205.44;4775839;30;20067;-39
2020/12/28 11:01:06;;;;;;;14.43;7.95;;;;;;;2.77;58.66;92223.22;4772466;30;20060;-39
2020/12/28 11:03:33;;;;;;;17.38;8.48;;;;;;;2.77;59.83;92219.81;4773585;30;20088;-39
2020/12/28 11:06:01;;;;;;;14.10;7.35;;;;;;;2.85;58.23;92199.25;4775000;30;20086;-39
2020/12/28 11:08:28;;;;;;;12.52;7.47;;;;;;;2.65;60.13;92209.44;4772257;30;20120;-40
2020/12/28 11:10:55;;;;;;;13.60;7.63;;;;;;;2.72;59.51;92198.78;4771562;29;20135;-40
2020/12/28 11:13:24;;;;;;;12.93;8.18;;;;;;;2.78;59.33;92197.31;4771565;29;20101;-40
2020/12/28 11:15:51;;;;;;;14.27;8.30;;;;;;;2.78;59.76;92206.06;4771712;30;20090;-39
2020/12/28 11:18:17;;;;;;;13.75;7.50;;;;;;;2.74;59.28;92212.53;4770744;30;20395;-40
2020/12/28 11:20:44;;;;;;;14.60;7.90;;;;;;;2.86;58.91;92204.22;4771131;29;20457;-40
2020/12/28 11:23:14;;;;;;;13.07;7.68;;;;;;;2.75;58.79;92204.16;4771701;30;20051;-39
2020/12/28 11:25:41;;;;;;;12.60;8.05;;;;;;;2.67;58.15;92215.94;4770659;30;20452;-39
2020/12/28 11:28:07;;;;;;;9.85;7.00;;;;;;;2.77;58.47;92209.13;4778758;30;20112;-40
2020/12/28 11:30:34;;;;;;;10.60;6.95;;;;;;;2.72;58.43;92206.81;4773837;30;20090;-40
2020/12/28 11:33:00;;;;;;;10.20;6.70;;;;;;;2.69;58.10;92224.31;4771828;30;20434;-40
2020/12/28 11:35:29;;;;;;;9.93;7.30;;;;;;;2.61;58.21;92208.66;4770891;30;20075;-39
2020/12/28 11:37:55;;;;;;;10.02;6.63;;;;;;;2.61;58.28;92227.34;4769913;30;20536;-41
2020/12/28 11:40:23;;;;;;;14.38;8.15;;;;;;;2.41;59.02;92211.59;4771734;29;20131;-40
2020/12/28 11:42:50;;;;;;;11.27;7.47;;;;;;;2.41;59.99;92179.56;4771556;30;20056;-40
2020/12/28 11:45:17;;;;;;;11.63;7.68;;;;;;;2.24;60.11;92169.53;4772136;30;20130;-39
2020/12/28 11:47:43;;;;;;;16.25;8.05;;;;;;;2.30;60.21;92189.41;4770391;30;20059;-40
2020/12/28 11:50:10;;;;;;;11.80;6.90;;;;;;;2.36;60.42;92211.91;4771338;29;20066;-41
2020/12/28 11:52:37;;;;;;;12.40;7.72;;;;;;;2.46;59.80;92219.22;4771176;30;20089;-39